createdAt,value
2019-02-27T00:00:31.499Z,33.34
2019-02-27T00:03:35.218Z,33.33
2019-02-27T00:06:38.703Z,33.37
2019-02-27T00:09:43.194Z,33.35
2019-02-27T00:12:46.803Z,33.38
2019-02-27T00:15:50.602Z,33.33
2019-02-27T00:18:58.651Z,33.37
2019-02-27T00:21:59.454Z,33.32
2019-02-27T00:25:03.979Z,33.31
2019-02-27T00:28:07.676Z,33.32
2019-02-27T00:31:12.026Z,33.33
2019-02-27T00:34:16.734Z,33.38
2019-02-27T00:37:20.225Z,33.37
2019-02-27T00:40:24.789Z,33.34
2019-02-27T00:43:29.037Z,33.36
2019-02-27T00:46:32.582Z,33.33
2019-02-27T00:49:36.118Z,33.34
2019-02-27T00:52:39.573Z,33.37
2019-02-27T00:55:43.098Z,33.37
2019-02-27T00:58:48.649Z,33.35
2019-02-27T01:01:52.130Z,33.35
2019-02-27T01:04:57.703Z,33.36
2019-02-27T01:08:01.174Z,33.37
2019-02-27T01:11:04.690Z,33.33
2019-02-27T01:14:08.193Z,33.38
2019-02-27T01:17:11.655Z,33.37
2019-02-27T01:20:15.244Z,33.34
2019-02-27T01:23:18.879Z,33.36
2019-02-27T01:26:23.422Z,33.36
2019-02-27T01:29:26.927Z,33.32
2019-02-27T01:32:31.170Z,33.38
2019-02-27T01:35:35.305Z,33.35
2019-02-27T01:38:38.924Z,33.35
2019-02-27T01:41:43.441Z,33.33
2019-02-27T01:44:47.768Z,33.35
2019-02-27T01:47:51.344Z,33.32
2019-02-27T01:50:55.780Z,33.32
2019-02-27T01:54:00.450Z,33.34
2019-02-27T01:57:05.049Z,33.34
2019-02-27T02:00:08.557Z,33.33
2019-02-27T02:03:13.694Z,33.35
2019-02-27T02:06:17.431Z,33.33
2019-02-27T02:09:37.516Z,33.33
2019-02-27T02:12:41.624Z,33.34
2019-02-27T02:16:17.598Z,33.32
2019-02-27T02:20:10.556Z,33.32
2019-02-27T02:23:57.414Z,33.33
2019-02-27T02:27:23.092Z,33.35
2019-02-27T02:30:54.116Z,33.32
2019-02-27T02:34:22.519Z,33.34
2019-02-27T02:38:14.446Z,33.35
2019-02-27T02:41:47.937Z,33.36
2019-02-27T02:45:13.178Z,33.33
2019-02-27T02:48:37.546Z,33.31
2019-02-27T02:52:06.998Z,33.34
2019-02-27T02:55:55.074Z,33.32
2019-02-27T02:59:39.092Z,33.34
2019-02-27T03:03:06.317Z,33.32
2019-02-27T03:06:46.035Z,33.32
2019-02-27T03:10:16.923Z,33.33
2019-02-27T03:13:41.603Z,33.32
2019-02-27T03:17:32.453Z,33.31
2019-02-27T03:21:01.440Z,33.31
2019-02-27T03:24:18.239Z,33.33
2019-02-27T03:27:41.395Z,33.32
2019-02-27T03:31:40.645Z,33.34
2019-02-27T03:35:10.663Z,33.33
2019-02-27T03:38:34.952Z,33.31
2019-02-27T03:42:15.709Z,33.32
2019-02-27T03:45:30.976Z,33.32
2019-02-27T03:49:15.873Z,33.32
2019-02-27T03:53:10.595Z,33.33
2019-02-27T03:56:50.401Z,33.30
2019-02-27T04:00:19.514Z,33.33
2019-02-27T04:03:56.543Z,33.32
2019-02-27T04:07:22.605Z,33.31
2019-02-27T04:10:30.909Z,33.31
2019-02-27T04:13:31.296Z,33.29
2019-02-27T04:16:38.027Z,33.34
2019-02-27T04:19:41.215Z,33.33
2019-02-27T04:22:44.733Z,33.32
2019-02-27T04:25:48.247Z,33.30
2019-02-27T04:28:51.715Z,33.30
2019-02-27T04:31:55.347Z,33.31
2019-02-27T04:34:58.832Z,33.33
2019-02-27T04:38:02.355Z,33.30
2019-02-27T04:41:05.836Z,33.31
2019-02-27T04:44:10.356Z,33.33
2019-02-27T04:47:13.912Z,33.28
2019-02-27T04:50:17.363Z,33.33
2019-02-27T04:53:21.907Z,33.31
2019-02-27T04:56:25.420Z,33.29
2019-02-27T04:59:28.883Z,33.33
2019-02-27T05:02:33.411Z,33.31
2019-02-27T05:05:39.053Z,33.31
2019-02-27T05:08:42.033Z,33.32
2019-02-27T05:11:48.336Z,33.31
2019-02-27T05:14:51.815Z,33.32
2019-02-27T05:17:56.215Z,33.34
2019-02-27T05:20:59.954Z,33.31
2019-02-27T05:24:05.184Z,33.31
2019-02-27T05:27:08.791Z,33.32
2019-02-27T05:30:12.877Z,33.31
2019-02-27T05:33:16.423Z,33.31
2019-02-27T05:36:20.939Z,33.32
2019-02-27T05:39:25.470Z,33.31
2019-02-27T05:42:28.964Z,33.30
2019-02-27T05:45:32.456Z,33.31
2019-02-27T05:48:36.146Z,33.30
2019-02-27T05:51:39.664Z,33.32
2019-02-27T05:54:43.175Z,33.29
2019-02-27T05:57:46.624Z,33.30
2019-02-27T06:00:50.068Z,33.30
2019-02-27T06:03:53.630Z,33.32
2019-02-27T06:06:57.182Z,33.30
2019-02-27T06:10:00.748Z,33.28
2019-02-27T06:13:04.452Z,33.31
2019-02-27T06:16:09.141Z,33.29
2019-02-27T06:19:13.919Z,33.29
2019-02-27T06:22:17.614Z,33.28
2019-02-27T06:25:23.374Z,33.27
2019-02-27T06:28:26.387Z,33.29
2019-02-27T06:31:29.899Z,33.28
2019-02-27T06:34:33.382Z,33.27
2019-02-27T06:37:42.949Z,33.30
2019-02-27T06:40:55.630Z,33.27
2019-02-27T06:44:06.110Z,33.29
2019-02-27T06:47:09.634Z,33.27
2019-02-27T06:50:14.133Z,33.33
2019-02-27T06:53:17.647Z,33.28
2019-02-27T06:56:21.269Z,33.28
2019-02-27T06:59:25.636Z,33.28
2019-02-27T07:02:29.276Z,33.26
2019-02-27T07:05:32.774Z,33.25
2019-02-27T07:08:38.204Z,33.29
2019-02-27T07:11:44.902Z,33.26
2019-02-27T07:14:46.760Z,33.27
2019-02-27T07:17:50.265Z,33.27
2019-02-27T07:20:55.763Z,33.29
2019-02-27T07:23:59.935Z,33.27
2019-02-27T07:27:03.423Z,33.26
2019-02-27T07:30:09.095Z,33.27
2019-02-27T07:33:13.722Z,33.28
2019-02-27T07:36:17.273Z,33.27
2019-02-27T07:39:20.983Z,33.26
2019-02-27T07:42:24.749Z,33.25
2019-02-27T07:45:28.108Z,33.26
2019-02-27T07:48:31.655Z,33.28
2019-02-27T07:51:36.167Z,33.27
2019-02-27T07:54:40.671Z,33.26
2019-02-27T07:57:46.277Z,33.26
2019-02-27T08:00:50.539Z,33.26
2019-02-27T08:03:54.394Z,33.25
2019-02-27T08:06:58.086Z,33.39
2019-02-27T08:10:04.555Z,33.62
2019-02-27T08:13:07.120Z,33.89
2019-02-27T08:16:11.588Z,33.94
2019-02-27T08:19:15.261Z,33.92
2019-02-27T08:22:18.722Z,34.00
2019-02-27T08:25:22.254Z,34.01
2019-02-27T08:28:25.720Z,34.00
2019-02-27T08:31:29.222Z,33.97
2019-02-27T08:34:32.734Z,33.92
2019-02-27T08:37:36.209Z,33.90
2019-02-27T08:40:39.746Z,33.93
2019-02-27T08:43:43.236Z,33.96
2019-02-27T08:46:48.819Z,34.01
2019-02-27T08:49:57.642Z,34.07
2019-02-27T08:52:57.976Z,34.09
2019-02-27T08:56:02.575Z,34.11
2019-02-27T08:59:06.172Z,34.18
2019-02-27T09:02:09.779Z,34.14
2019-02-27T09:05:13.257Z,34.06
2019-02-27T09:08:16.757Z,34.12
2019-02-27T09:11:21.294Z,34.01
2019-02-27T09:14:24.798Z,33.96
2019-02-27T09:17:28.356Z,34.08
2019-02-27T09:20:32.036Z,33.95
2019-02-27T09:23:35.496Z,34.14
2019-02-27T09:26:39.801Z,34.10
2019-02-27T09:29:45.388Z,34.14
2019-02-27T09:32:49.906Z,34.17
2019-02-27T09:35:53.531Z,34.16
2019-02-27T09:38:58.307Z,34.20
2019-02-27T09:42:02.856Z,34.24
2019-02-27T09:45:16.501Z,34.24
2019-02-27T09:48:20.195Z,34.24
2019-02-27T09:51:23.810Z,34.25
2019-02-27T09:54:28.463Z,34.24
2019-02-27T09:57:32.890Z,34.21
2019-02-27T10:00:48.201Z,34.23
2019-02-27T10:03:52.079Z,34.28
2019-02-27T10:06:57.071Z,34.27
2019-02-27T10:10:00.592Z,34.08
2019-02-27T10:13:05.097Z,34.03
2019-02-27T10:16:08.608Z,33.94
2019-02-27T10:19:12.116Z,33.93
2019-02-27T10:22:17.645Z,33.96
2019-02-27T10:25:20.853Z,33.97
2019-02-27T10:28:24.455Z,33.96
2019-02-27T10:31:27.993Z,33.97
2019-02-27T10:34:31.630Z,33.91
2019-02-27T10:37:35.188Z,34.04
2019-02-27T10:40:38.982Z,34.11
2019-02-27T10:43:42.672Z,34.09
2019-02-27T10:46:46.156Z,34.13
2019-02-27T10:49:49.828Z,34.10
2019-02-27T10:52:53.290Z,34.07
2019-02-27T10:55:56.896Z,34.00
2019-02-27T10:59:00.475Z,33.96
2019-02-27T11:02:03.982Z,33.91
2019-02-27T11:05:07.834Z,33.91
2019-02-27T11:08:11.496Z,33.95
2019-02-27T11:11:16.604Z,33.92
2019-02-27T11:14:20.243Z,33.84
2019-02-27T11:17:25.958Z,33.79
2019-02-27T11:20:29.617Z,33.74
2019-02-27T11:23:33.209Z,33.70
2019-02-27T11:26:36.767Z,33.68
2019-02-27T11:29:40.406Z,33.74
2019-02-27T11:32:43.923Z,33.79
2019-02-27T11:35:47.529Z,33.78
2019-02-27T11:38:51.139Z,33.78
2019-02-27T11:41:54.620Z,33.70
2019-02-27T11:44:58.210Z,33.74
2019-02-27T11:48:02.030Z,33.72
2019-02-27T11:51:06.559Z,33.65
2019-02-27T11:54:11.191Z,33.63
2019-02-27T11:57:14.828Z,33.64
2019-02-27T12:00:23.279Z,33.60
2019-02-27T12:03:26.919Z,33.58
2019-02-27T12:06:30.482Z,33.59
2019-02-27T12:09:35.107Z,33.55
2019-02-27T12:12:39.375Z,33.61
2019-02-27T12:15:43.620Z,33.45
2019-02-27T12:18:47.714Z,33.44
2019-02-27T12:21:51.191Z,33.38
2019-02-27T12:24:55.709Z,33.26
2019-02-27T12:27:59.238Z,33.26
2019-02-27T12:31:02.725Z,33.20
2019-02-27T12:34:06.226Z,33.21
2019-02-27T12:37:19.234Z,33.19
2019-02-27T12:40:16.706Z,33.12
2019-02-27T12:43:21.250Z,33.11
2019-02-27T12:46:24.849Z,33.09
2019-02-27T12:49:28.488Z,32.96
2019-02-27T12:52:32.023Z,32.93
2019-02-27T12:55:36.491Z,32.86
2019-02-27T12:58:40.199Z,32.85
2019-02-27T13:01:45.572Z,32.82
2019-02-27T13:04:52.334Z,32.83
2019-02-27T13:07:54.379Z,33.39
2019-02-27T13:10:57.875Z,33.66
2019-02-27T13:14:01.354Z,33.71
2019-02-27T13:17:05.017Z,33.82
2019-02-27T13:20:12.531Z,33.82
2019-02-27T13:23:16.176Z,33.76
2019-02-27T13:26:19.679Z,33.66
2019-02-27T13:29:23.186Z,33.61
2019-02-27T13:32:27.544Z,33.68
2019-02-27T13:35:32.148Z,33.64
2019-02-27T13:38:37.026Z,33.58
2019-02-27T13:41:42.438Z,33.53
2019-02-27T13:44:46.009Z,33.47
2019-02-27T13:47:49.620Z,33.46
2019-02-27T13:50:53.241Z,33.47
2019-02-27T13:54:00.109Z,33.39
2019-02-27T13:57:02.047Z,33.39
2019-02-27T14:00:06.777Z,33.39
2019-02-27T14:03:12.658Z,33.30
2019-02-27T14:06:15.742Z,33.40
2019-02-27T14:09:19.346Z,33.37
2019-02-27T14:12:22.902Z,33.34
2019-02-27T14:15:27.301Z,33.33
2019-02-27T14:18:32.247Z,33.28
2019-02-27T14:21:36.824Z,33.24
2019-02-27T14:24:40.327Z,33.23
2019-02-27T14:27:47.445Z,33.19
2019-02-27T14:30:51.250Z,33.23
2019-02-27T14:33:55.033Z,33.17
2019-02-27T14:37:00.568Z,33.15
2019-02-27T14:40:05.371Z,33.19
2019-02-27T14:43:08.912Z,33.15
2019-02-27T14:46:12.505Z,33.14
2019-02-27T14:49:16.118Z,33.10
2019-02-27T14:52:19.628Z,33.15
2019-02-27T14:55:23.137Z,33.18
2019-02-27T14:58:26.616Z,33.22
2019-02-27T15:01:30.153Z,33.27
2019-02-27T15:04:34.739Z,33.29
2019-02-27T15:07:38.397Z,33.33
2019-02-27T15:10:41.895Z,33.32
2019-02-27T15:13:45.459Z,33.34
2019-02-27T15:16:49.819Z,33.36
2019-02-27T15:19:53.385Z,33.37
2019-02-27T15:22:56.885Z,33.39
2019-02-27T15:26:00.370Z,33.43
2019-02-27T15:29:05.770Z,33.50
2019-02-27T15:32:10.272Z,33.34
2019-02-27T15:35:15.548Z,33.23
2019-02-27T15:38:19.096Z,33.20
2019-02-27T15:41:22.584Z,33.17
2019-02-27T15:44:27.144Z,33.15
2019-02-27T15:47:33.513Z,33.36
2019-02-27T15:50:37.136Z,33.69
2019-02-27T15:53:40.713Z,33.70
2019-02-27T15:56:46.415Z,33.71
2019-02-27T15:59:50.398Z,33.73
2019-02-27T16:02:53.834Z,33.74
2019-02-27T16:06:04.994Z,33.74
2019-02-27T16:09:06.791Z,33.79
2019-02-27T16:12:10.312Z,33.83
2019-02-27T16:15:16.740Z,33.83
2019-02-27T16:18:19.154Z,33.85
2019-02-27T16:21:23.541Z,33.85
2019-02-27T16:24:28.835Z,33.87
2019-02-27T16:27:35.717Z,33.86
2019-02-27T16:30:37.650Z,33.85
2019-02-27T16:33:41.183Z,33.90
2019-02-27T16:36:46.895Z,33.94
2019-02-27T16:39:50.415Z,33.96
2019-02-27T16:42:53.938Z,33.95
2019-02-27T16:45:57.441Z,33.97
2019-02-27T16:49:02.997Z,33.94
2019-02-27T16:52:08.755Z,33.97
2019-02-27T16:55:13.430Z,33.87
2019-02-27T16:58:16.946Z,33.79
2019-02-27T17:01:20.437Z,33.70
2019-02-27T17:04:24.025Z,33.88
2019-02-27T17:07:27.848Z,33.93
2019-02-27T17:10:31.430Z,33.80
2019-02-27T17:13:35.883Z,33.73
2019-02-27T17:16:44.310Z,33.71
2019-02-27T17:19:45.569Z,33.66
2019-02-27T17:22:49.055Z,33.64
2019-02-27T17:25:52.485Z,33.60
2019-02-27T17:28:55.947Z,33.61
2019-02-27T17:31:59.398Z,33.56
2019-02-27T17:35:02.857Z,33.60
2019-02-27T17:38:06.353Z,34.13
2019-02-27T17:41:10.009Z,34.25
2019-02-27T17:44:13.600Z,34.23
2019-02-27T17:47:17.093Z,34.22
2019-02-27T17:50:20.582Z,34.19
2019-02-27T17:53:24.063Z,34.19
2019-02-27T17:56:27.564Z,34.21
2019-02-27T17:59:31.066Z,34.15
2019-02-27T18:02:34.577Z,34.16
2019-02-27T18:05:38.100Z,34.11
2019-02-27T18:08:41.576Z,34.16
2019-02-27T18:11:45.116Z,34.10
2019-02-27T18:14:48.581Z,34.13
2019-02-27T18:17:52.099Z,34.14
2019-02-27T18:20:59.196Z,34.10
2019-02-27T18:24:02.760Z,34.07
2019-02-27T18:27:06.269Z,34.06
2019-02-27T18:30:10.879Z,34.06
2019-02-27T18:33:17.326Z,34.08
2019-02-27T18:36:19.627Z,34.03
2019-02-27T18:39:23.159Z,34.08
2019-02-27T18:42:26.635Z,34.07
2019-02-27T18:45:31.160Z,34.05
2019-02-27T18:48:34.847Z,34.07
2019-02-27T18:51:38.369Z,34.05
2019-02-27T18:54:41.883Z,34.04
2019-02-27T18:57:47.133Z,33.96
2019-02-27T19:00:50.730Z,34.04
2019-02-27T19:03:54.231Z,34.01
2019-02-27T19:06:58.776Z,33.95
2019-02-27T19:10:03.756Z,33.96
2019-02-27T19:13:07.508Z,34.05
2019-02-27T19:16:10.977Z,34.04
2019-02-27T19:19:14.757Z,33.96
2019-02-27T19:22:18.286Z,33.98
2019-02-27T19:25:21.740Z,33.93
2019-02-27T19:28:25.717Z,33.93
2019-02-27T19:31:29.329Z,33.95
2019-02-27T19:34:33.769Z,33.97
2019-02-27T19:37:39.170Z,33.96
2019-02-27T19:40:44.426Z,33.96
2019-02-27T19:43:47.932Z,33.96
2019-02-27T19:46:51.487Z,33.92
2019-02-27T19:49:55.148Z,33.96
2019-02-27T19:53:03.307Z,33.91
2019-02-27T19:56:04.002Z,33.79
2019-02-27T19:59:07.696Z,33.73
2019-02-27T20:02:11.216Z,33.72
2019-02-27T20:05:16.414Z,33.64
2019-02-27T20:08:20.057Z,33.68
2019-02-27T20:11:26.410Z,33.93
2019-02-27T20:14:30.111Z,34.00
2019-02-27T20:17:35.660Z,33.95
2019-02-27T20:20:41.258Z,33.91
2019-02-27T20:23:44.795Z,33.95
2019-02-27T20:26:51.435Z,34.02
2019-02-27T20:29:54.762Z,33.99
2019-02-27T20:32:59.760Z,34.00
2019-02-27T20:36:04.474Z,34.08
2019-02-27T20:39:07.954Z,34.15
2019-02-27T20:42:13.739Z,34.13
2019-02-27T20:45:17.921Z,34.13
2019-02-27T20:48:21.439Z,34.15
2019-02-27T20:51:25.145Z,34.11
2019-02-27T20:54:28.594Z,34.16
2019-02-27T20:57:32.202Z,34.11
2019-02-27T21:00:37.652Z,34.12
2019-02-27T21:03:41.154Z,34.07
2019-02-27T21:06:47.890Z,33.94
2019-02-27T21:09:49.947Z,33.88
2019-02-27T21:12:54.402Z,33.83
2019-02-27T21:15:58.154Z,33.77
2019-02-27T21:19:02.638Z,33.73
2019-02-27T21:22:06.682Z,33.74
2019-02-27T21:25:12.083Z,33.67
2019-02-27T21:28:20.990Z,33.66
2019-02-27T21:31:26.458Z,33.69
2019-02-27T21:34:27.511Z,33.62
2019-02-27T21:37:31.224Z,33.59
2019-02-27T21:40:36.307Z,33.60
2019-02-27T21:43:40.090Z,33.60
2019-02-27T21:46:47.118Z,33.62
2019-02-27T21:49:48.961Z,33.62
2019-02-27T21:52:54.284Z,33.64
2019-02-27T21:55:58.223Z,33.57
2019-02-27T21:59:04.735Z,33.56
2019-02-27T22:02:07.033Z,33.58
2019-02-27T22:05:10.620Z,33.56
2019-02-27T22:08:14.231Z,33.56
2019-02-27T22:11:17.751Z,33.55
2019-02-27T22:14:22.262Z,33.53
2019-02-27T22:17:25.779Z,33.53
2019-02-27T22:20:29.275Z,33.51
2019-02-27T22:23:32.759Z,33.52
2019-02-27T22:26:37.574Z,33.53
2019-02-27T22:29:42.628Z,33.55
2019-02-27T22:32:48.189Z,33.53
2019-02-27T22:35:52.344Z,33.55
2019-02-27T22:38:59.881Z,33.51
2019-02-27T22:42:01.167Z,33.54
2019-02-27T22:45:05.369Z,33.51
2019-02-27T22:48:09.015Z,33.51
2019-02-27T22:51:13.389Z,33.50
2019-02-27T22:54:19.034Z,33.50
2019-02-27T22:57:23.486Z,33.51
2019-02-27T23:01:18.657Z,33.53
2019-02-27T23:04:22.336Z,33.51
2019-02-27T23:07:25.768Z,33.52
2019-02-27T23:10:30.954Z,33.48
2019-02-27T23:13:35.756Z,33.51
2019-02-27T23:16:39.256Z,33.48
2019-02-27T23:19:45.864Z,33.47
2019-02-27T23:22:48.022Z,33.51
2019-02-27T23:25:51.513Z,33.53
2019-02-27T23:28:55.097Z,33.48
2019-02-27T23:31:58.609Z,33.49
2019-02-27T23:35:03.121Z,33.50
2019-02-27T23:38:07.652Z,33.50
2019-02-27T23:41:11.160Z,33.50
2019-02-27T23:44:14.643Z,33.52
2019-02-27T23:47:19.185Z,33.49
2019-02-27T23:50:22.687Z,33.49
2019-02-27T23:53:27.179Z,33.48
2019-02-27T23:56:31.428Z,33.51
2019-02-27T23:59:35.602Z,33.53
